sensor_id;sensor_type;location;lat;lon;timestamp;temperature;humidity
12634;DHT22;6382;48.614;8.880;2022-11-15T00:00:35;6.50;99.90
12634;DHT22;6382;48.614;8.880;2022-11-15T00:03:01;6.50;99.90
12634;DHT22;6382;48.614;8.880;2022-11-15T00:05:28;7.70;99.90
12634;DHT22;6382;48.614;8.880;2022-11-15T00:07:56;6.50;99.90
12634;DHT22;6382;48.614;8.880;2022-11-15T00:10:23;7.50;99.90
12634;DHT22;6382;48.614;8.880;2022-11-15T00:12:49;6.50;99.90
12634;DHT22;6382;48.614;8.880;2022-11-15T00:15:16;6.50;99.90
12634;DHT22;6382;48.614;8.880;2022-11-15T00:17:43;8.40;99.90
12634;DHT22;6382;48.614;8.880;2022-11-15T00:20:09;6.50;99.90
12634;DHT22;6382;48.614;8.880;2022-11-15T00:22:37;6.50;99.90
12634;DHT22;6382;48.614;8.880;2022-11-15T00:25:04;6.50;99.90
12634;DHT22;6382;48.614;8.880;2022-11-15T00:27:31;6.40;99.90
12634;DHT22;6382;48.614;8.880;2022-11-15T00:29:57;6.40;99.90
12634;DHT22;6382;48.614;8.880;2022-11-15T00:32:24;6.50;99.90
12634;DHT22;6382;48.614;8.880;2022-11-15T00:34:51;6.40;99.90
12634;DHT22;6382;48.614;8.880;2022-11-15T00:37:18;6.40;99.90
12634;DHT22;6382;48.614;8.880;2022-11-15T00:39:44;6.30;99.90
12634;DHT22;6382;48.614;8.880;2022-11-15T00:42:11;6.30;99.90
12634;DHT22;6382;48.614;8.880;2022-11-15T00:44:37;6.20;99.90
12634;DHT22;6382;48.614;8.880;2022-11-15T00:47:04;6.10;99.90
12634;DHT22;6382;48.614;8.880;2022-11-15T00:49:31;6.00;99.90
12634;DHT22;6382;48.614;8.880;2022-11-15T00:51:57;5.90;99.90
12634;DHT22;6382;48.614;8.880;2022-11-15T00:54:24;5.90;99.90
12634;DHT22;6382;48.614;8.880;2022-11-15T00:56:51;5.80;99.90
12634;DHT22;6382;48.614;8.880;2022-11-15T00:59:17;5.80;99.90
12634;DHT22;6382;48.614;8.880;2022-11-15T01:01:44;5.70;99.90
12634;DHT22;6382;48.614;8.880;2022-11-15T01:04:10;5.70;99.90
12634;DHT22;6382;48.614;8.880;2022-11-15T01:06:37;6.50;99.90
12634;DHT22;6382;48.614;8.880;2022-11-15T01:09:04;5.50;99.90
12634;DHT22;6382;48.614;8.880;2022-11-15T01:11:30;5.40;99.90
12634;DHT22;6382;48.614;8.880;2022-11-15T01:13:57;5.30;99.90
12634;DHT22;6382;48.614;8.880;2022-11-15T01:16:24;5.20;99.90
12634;DHT22;6382;48.614;8.880;2022-11-15T01:18:50;5.20;99.90
12634;DHT22;6382;48.614;8.880;2022-11-15T01:21:18;5.20;99.90
12634;DHT22;6382;48.614;8.880;2022-11-15T01:23:45;5.10;99.90
12634;DHT22;6382;48.614;8.880;2022-11-15T01:26:13;5.20;99.90
12634;DHT22;6382;48.614;8.880;2022-11-15T01:28:40;5.20;99.90
12634;DHT22;6382;48.614;8.880;2022-11-15T01:31:14;5.20;99.90
12634;DHT22;6382;48.614;8.880;2022-11-15T01:33:41;5.00;99.90
12634;DHT22;6382;48.614;8.880;2022-11-15T01:36:12;5.10;99.90
12634;DHT22;6382;48.614;8.880;2022-11-15T01:38:39;5.10;99.90
12634;DHT22;6382;48.614;8.880;2022-11-15T01:41:06;5.10;99.90
12634;DHT22;6382;48.614;8.880;2022-11-15T01:43:34;5.10;99.90
12634;DHT22;6382;48.614;8.880;2022-11-15T01:46:06;5.10;99.90
12634;DHT22;6382;48.614;8.880;2022-11-15T01:48:33;5.00;99.90
12634;DHT22;6382;48.614;8.880;2022-11-15T01:51:00;5.10;99.90
12634;DHT22;6382;48.614;8.880;2022-11-15T01:53:29;5.10;99.90
12634;DHT22;6382;48.614;8.880;2022-11-15T01:55:57;5.20;99.90
12634;DHT22;6382;48.614;8.880;2022-11-15T01:58:24;5.30;99.90
12634;DHT22;6382;48.614;8.880;2022-11-15T02:00:51;5.30;99.90
12634;DHT22;6382;48.614;8.880;2022-11-15T02:03:18;5.30;99.90
12634;DHT22;6382;48.614;8.880;2022-11-15T02:05:45;5.30;99.90
12634;DHT22;6382;48.614;8.880;2022-11-15T02:08:11;5.30;99.90
12634;DHT22;6382;48.614;8.880;2022-11-15T02:10:46;5.30;99.90
12634;DHT22;6382;48.614;8.880;2022-11-15T02:13:16;5.40;99.90
12634;DHT22;6382;48.614;8.880;2022-11-15T02:18:31;5.40;99.90
12634;DHT22;6382;48.614;8.880;2022-11-15T02:30:29;5.30;99.90
12634;DHT22;6382;48.614;8.880;2022-11-15T02:32:28;5.30;99.90
12634;DHT22;6382;48.614;8.880;2022-11-15T02:37:52;5.50;99.90
12634;DHT22;6382;48.614;8.880;2022-11-15T02:40:41;5.50;99.90
12634;DHT22;6382;48.614;8.880;2022-11-15T02:43:11;7.90;99.90
12634;DHT22;6382;48.614;8.880;2022-11-15T02:46:00;5.60;99.90
12634;DHT22;6382;48.614;8.880;2022-11-15T02:48:28;5.60;99.90
12634;DHT22;6382;48.614;8.880;2022-11-15T02:50:55;5.70;99.90
12634;DHT22;6382;48.614;8.880;2022-11-15T02:53:25;5.80;99.90
12634;DHT22;6382;48.614;8.880;2022-11-15T02:55:52;5.80;99.90
12634;DHT22;6382;48.614;8.880;2022-11-15T03:01:00;5.80;99.90
12634;DHT22;6382;48.614;8.880;2022-11-15T03:11:18;5.60;99.90
12634;DHT22;6382;48.614;8.880;2022-11-15T03:19:30;5.50;99.90
12634;DHT22;6382;48.614;8.880;2022-11-15T03:21:47;5.50;99.90
12634;DHT22;6382;48.614;8.880;2022-11-15T03:24:16;5.50;99.90
12634;DHT22;6382;48.614;8.880;2022-11-15T03:26:51;5.50;99.90
12634;DHT22;6382;48.614;8.880;2022-11-15T03:29:22;5.60;99.90
12634;DHT22;6382;48.614;8.880;2022-11-15T03:31:51;5.70;99.90
12634;DHT22;6382;48.614;8.880;2022-11-15T03:34:35;7.30;99.90
12634;DHT22;6382;48.614;8.880;2022-11-15T03:37:03;5.70;99.90
12634;DHT22;6382;48.614;8.880;2022-11-15T03:39:31;5.60;99.90
12634;DHT22;6382;48.614;8.880;2022-11-15T03:42:07;7.00;99.90
12634;DHT22;6382;48.614;8.880;2022-11-15T03:44:44;5.50;99.90
12634;DHT22;6382;48.614;8.880;2022-11-15T03:47:14;5.60;99.90
12634;DHT22;6382;48.614;8.880;2022-11-15T03:49:45;5.50;99.90
12634;DHT22;6382;48.614;8.880;2022-11-15T03:52:13;5.50;99.90
12634;DHT22;6382;48.614;8.880;2022-11-15T03:54:50;7.10;99.90
12634;DHT22;6382;48.614;8.880;2022-11-15T03:57:17;5.40;99.90
12634;DHT22;6382;48.614;8.880;2022-11-15T03:59:43;5.40;99.90
12634;DHT22;6382;48.614;8.880;2022-11-15T04:02:11;5.40;99.90
12634;DHT22;6382;48.614;8.880;2022-11-15T04:04:38;5.40;99.90
12634;DHT22;6382;48.614;8.880;2022-11-15T04:07:04;6.10;99.90
12634;DHT22;6382;48.614;8.880;2022-11-15T04:09:31;5.40;99.90
12634;DHT22;6382;48.614;8.880;2022-11-15T04:11:58;5.40;99.90
12634;DHT22;6382;48.614;8.880;2022-11-15T04:14:24;6.00;99.90
12634;DHT22;6382;48.614;8.880;2022-11-15T04:16:51;5.40;99.90
12634;DHT22;6382;48.614;8.880;2022-11-15T04:19:18;6.80;99.90
12634;DHT22;6382;48.614;8.880;2022-11-15T04:22:03;5.40;99.90
12634;DHT22;6382;48.614;8.880;2022-11-15T04:24:48;5.30;99.90
12634;DHT22;6382;48.614;8.880;2022-11-15T04:27:15;5.40;99.90
12634;DHT22;6382;48.614;8.880;2022-11-15T04:29:42;5.40;99.90
12634;DHT22;6382;48.614;8.880;2022-11-15T04:32:08;5.50;99.90
12634;DHT22;6382;48.614;8.880;2022-11-15T04:34:35;5.60;99.90
12634;DHT22;6382;48.614;8.880;2022-11-15T04:37:02;5.70;99.90
12634;DHT22;6382;48.614;8.880;2022-11-15T04:39:39;5.70;99.90
12634;DHT22;6382;48.614;8.880;2022-11-15T04:42:06;5.70;99.90
12634;DHT22;6382;48.614;8.880;2022-11-15T04:44:32;6.60;99.90
12634;DHT22;6382;48.614;8.880;2022-11-15T04:46:59;5.80;99.90
12634;DHT22;6382;48.614;8.880;2022-11-15T04:49:26;5.80;99.90
12634;DHT22;6382;48.614;8.880;2022-11-15T04:51:53;5.70;99.90
12634;DHT22;6382;48.614;8.880;2022-11-15T04:54:19;5.60;99.90
12634;DHT22;6382;48.614;8.880;2022-11-15T04:56:46;5.60;99.90
12634;DHT22;6382;48.614;8.880;2022-11-15T04:59:13;5.60;99.90
12634;DHT22;6382;48.614;8.880;2022-11-15T05:01:39;6.80;99.90
12634;DHT22;6382;48.614;8.880;2022-11-15T05:04:10;5.50;99.90
12634;DHT22;6382;48.614;8.880;2022-11-15T05:06:50;5.50;99.90
12634;DHT22;6382;48.614;8.880;2022-11-15T05:09:18;5.50;99.90
12634;DHT22;6382;48.614;8.880;2022-11-15T05:11:45;6.60;99.90
12634;DHT22;6382;48.614;8.880;2022-11-15T05:14:12;5.50;99.90
12634;DHT22;6382;48.614;8.880;2022-11-15T05:16:39;6.30;99.90
12634;DHT22;6382;48.614;8.880;2022-11-15T05:19:05;6.90;99.90
12634;DHT22;6382;48.614;8.880;2022-11-15T05:21:33;5.70;99.90
12634;DHT22;6382;48.614;8.880;2022-11-15T05:23:59;5.80;99.90
12634;DHT22;6382;48.614;8.880;2022-11-15T05:26:26;5.90;99.90
12634;DHT22;6382;48.614;8.880;2022-11-15T05:28:53;5.90;99.90
12634;DHT22;6382;48.614;8.880;2022-11-15T05:31:21;5.90;99.90
12634;DHT22;6382;48.614;8.880;2022-11-15T05:33:48;6.00;99.90
12634;DHT22;6382;48.614;8.880;2022-11-15T05:38:48;5.90;99.90
12634;DHT22;6382;48.614;8.880;2022-11-15T05:41:15;7.30;99.90
12634;DHT22;6382;48.614;8.880;2022-11-15T05:43:43;7.10;99.90
12634;DHT22;6382;48.614;8.880;2022-11-15T05:46:10;5.90;99.90
12634;DHT22;6382;48.614;8.880;2022-11-15T05:48:37;6.70;99.90
12634;DHT22;6382;48.614;8.880;2022-11-15T05:51:05;7.00;99.90
12634;DHT22;6382;48.614;8.880;2022-11-15T05:53:33;5.70;99.90
12634;DHT22;6382;48.614;8.880;2022-11-15T05:56:02;5.60;99.90
12634;DHT22;6382;48.614;8.880;2022-11-15T05:58:30;5.50;99.90
12634;DHT22;6382;48.614;8.880;2022-11-15T06:00:57;5.40;99.90
12634;DHT22;6382;48.614;8.880;2022-11-15T06:03:23;5.30;99.90
12634;DHT22;6382;48.614;8.880;2022-11-15T06:05:50;5.30;99.90
12634;DHT22;6382;48.614;8.880;2022-11-15T06:08:17;5.20;99.90
12634;DHT22;6382;48.614;8.880;2022-11-15T06:10:43;6.10;99.90
12634;DHT22;6382;48.614;8.880;2022-11-15T06:13:10;5.20;99.90
12634;DHT22;6382;48.614;8.880;2022-11-15T06:15:37;5.20;99.90
12634;DHT22;6382;48.614;8.880;2022-11-15T06:18:03;5.20;99.90
12634;DHT22;6382;48.614;8.880;2022-11-15T06:20:30;5.80;99.90
12634;DHT22;6382;48.614;8.880;2022-11-15T06:22:57;5.30;99.90
12634;DHT22;6382;48.614;8.880;2022-11-15T06:25:25;5.30;99.90
12634;DHT22;6382;48.614;8.880;2022-11-15T06:27:52;5.30;99.90
12634;DHT22;6382;48.614;8.880;2022-11-15T06:30:19;5.60;99.90
12634;DHT22;6382;48.614;8.880;2022-11-15T06:32:46;5.30;99.90
12634;DHT22;6382;48.614;8.880;2022-11-15T06:35:13;4.70;99.90
12634;DHT22;6382;48.614;8.880;2022-11-15T06:37:40;5.30;99.90
12634;DHT22;6382;48.614;8.880;2022-11-15T06:40:08;5.30;99.90
12634;DHT22;6382;48.614;8.880;2022-11-15T06:42:37;5.40;99.90
12634;DHT22;6382;48.614;8.880;2022-11-15T06:45:04;5.40;99.90
12634;DHT22;6382;48.614;8.880;2022-11-15T06:47:31;5.20;99.90
12634;DHT22;6382;48.614;8.880;2022-11-15T06:49:58;5.30;99.90
12634;DHT22;6382;48.614;8.880;2022-11-15T06:52:24;5.30;99.90
12634;DHT22;6382;48.614;8.880;2022-11-15T06:54:51;5.40;99.90
12634;DHT22;6382;48.614;8.880;2022-11-15T06:57:18;7.00;99.90
12634;DHT22;6382;48.614;8.880;2022-11-15T06:59:44;5.50;99.90
12634;DHT22;6382;48.614;8.880;2022-11-15T07:02:11;5.60;99.90
12634;DHT22;6382;48.614;8.880;2022-11-15T07:04:38;5.70;99.90
12634;DHT22;6382;48.614;8.880;2022-11-15T07:07:05;7.40;99.90
12634;DHT22;6382;48.614;8.880;2022-11-15T07:09:32;5.80;99.90
12634;DHT22;6382;48.614;8.880;2022-11-15T07:11:58;5.80;99.90
12634;DHT22;6382;48.614;8.880;2022-11-15T07:14:32;5.80;99.90
12634;DHT22;6382;48.614;8.880;2022-11-15T07:16:59;5.80;99.90
12634;DHT22;6382;48.614;8.880;2022-11-15T07:19:26;5.80;99.90
12634;DHT22;6382;48.614;8.880;2022-11-15T07:21:52;6.00;99.90
12634;DHT22;6382;48.614;8.880;2022-11-15T07:24:19;6.00;99.90
12634;DHT22;6382;48.614;8.880;2022-11-15T07:26:46;6.00;99.90
12634;DHT22;6382;48.614;8.880;2022-11-15T07:29:12;7.60;99.90
12634;DHT22;6382;48.614;8.880;2022-11-15T07:31:39;7.60;99.90
12634;DHT22;6382;48.614;8.880;2022-11-15T07:34:06;6.20;99.90
12634;DHT22;6382;48.614;8.880;2022-11-15T07:36:32;6.20;99.90
12634;DHT22;6382;48.614;8.880;2022-11-15T07:38:59;6.30;99.90
12634;DHT22;6382;48.614;8.880;2022-11-15T07:41:26;6.30;99.90
12634;DHT22;6382;48.614;8.880;2022-11-15T07:43:52;7.80;99.90
12634;DHT22;6382;48.614;8.880;2022-11-15T07:46:19;6.50;99.90
12634;DHT22;6382;48.614;8.880;2022-11-15T07:48:46;6.50;99.90
12634;DHT22;6382;48.614;8.880;2022-11-15T07:51:13;6.50;99.90
12634;DHT22;6382;48.614;8.880;2022-11-15T07:53:41;6.60;99.90
12634;DHT22;6382;48.614;8.880;2022-11-15T07:56:08;6.60;99.90
12634;DHT22;6382;48.614;8.880;2022-11-15T07:58:35;6.70;99.90
12634;DHT22;6382;48.614;8.880;2022-11-15T08:01:03;6.70;99.90
12634;DHT22;6382;48.614;8.880;2022-11-15T08:03:30;8.50;99.90
12634;DHT22;6382;48.614;8.880;2022-11-15T08:05:57;6.70;99.90
12634;DHT22;6382;48.614;8.880;2022-11-15T08:08:24;6.80;99.90
12634;DHT22;6382;48.614;8.880;2022-11-15T08:10:50;6.80;99.90
12634;DHT22;6382;48.614;8.880;2022-11-15T08:13:17;7.80;99.90
12634;DHT22;6382;48.614;8.880;2022-11-15T08:15:44;7.00;99.90
12634;DHT22;6382;48.614;8.880;2022-11-15T08:18:14;7.10;99.90
12634;DHT22;6382;48.614;8.880;2022-11-15T08:20:41;7.60;99.90
12634;DHT22;6382;48.614;8.880;2022-11-15T08:23:08;7.30;99.90
12634;DHT22;6382;48.614;8.880;2022-11-15T08:25:36;7.40;99.90
12634;DHT22;6382;48.614;8.880;2022-11-15T08:28:04;7.60;99.90
12634;DHT22;6382;48.614;8.880;2022-11-15T08:30:33;7.60;99.90
12634;DHT22;6382;48.614;8.880;2022-11-15T08:33:00;9.20;99.90
12634;DHT22;6382;48.614;8.880;2022-11-15T08:35:27;7.90;99.90
12634;DHT22;6382;48.614;8.880;2022-11-15T08:37:54;8.00;99.90
12634;DHT22;6382;48.614;8.880;2022-11-15T08:40:21;9.40;99.90
12634;DHT22;6382;48.614;8.880;2022-11-15T08:42:49;9.30;99.90
12634;DHT22;6382;48.614;8.880;2022-11-15T08:45:15;8.30;99.90
12634;DHT22;6382;48.614;8.880;2022-11-15T08:47:42;8.40;99.90
12634;DHT22;6382;48.614;8.880;2022-11-15T08:50:09;8.50;99.90
12634;DHT22;6382;48.614;8.880;2022-11-15T08:52:35;8.50;99.90
12634;DHT22;6382;48.614;8.880;2022-11-15T08:55:02;8.60;99.90
12634;DHT22;6382;48.614;8.880;2022-11-15T08:57:29;8.70;99.90
12634;DHT22;6382;48.614;8.880;2022-11-15T08:59:59;8.80;99.90
12634;DHT22;6382;48.614;8.880;2022-11-15T09:02:25;8.90;99.90
12634;DHT22;6382;48.614;8.880;2022-11-15T09:04:52;8.90;99.90
12634;DHT22;6382;48.614;8.880;2022-11-15T09:07:18;9.80;99.90
12634;DHT22;6382;48.614;8.880;2022-11-15T09:09:45;9.80;99.90
12634;DHT22;6382;48.614;8.880;2022-11-15T09:12:12;10.10;99.90
12634;DHT22;6382;48.614;8.880;2022-11-15T09:14:39;9.20;99.90
12634;DHT22;6382;48.614;8.880;2022-11-15T09:17:09;9.20;99.90
12634;DHT22;6382;48.614;8.880;2022-11-15T09:19:35;11.00;99.90
12634;DHT22;6382;48.614;8.880;2022-11-15T09:22:05;9.40;99.90
12634;DHT22;6382;48.614;8.880;2022-11-15T09:24:32;9.40;99.90
12634;DHT22;6382;48.614;8.880;2022-11-15T09:26:58;9.60;99.90
12634;DHT22;6382;48.614;8.880;2022-11-15T09:29:25;10.50;99.90
12634;DHT22;6382;48.614;8.880;2022-11-15T09:31:52;10.10;99.90
12634;DHT22;6382;48.614;8.880;2022-11-15T09:34:19;9.90;99.90
12634;DHT22;6382;48.614;8.880;2022-11-15T09:36:47;11.20;99.90
12634;DHT22;6382;48.614;8.880;2022-11-15T09:39:13;10.00;99.90
12634;DHT22;6382;48.614;8.880;2022-11-15T09:44:18;10.20;99.90
12634;DHT22;6382;48.614;8.880;2022-11-15T09:46:57;10.20;99.90
12634;DHT22;6382;48.614;8.880;2022-11-15T09:49:25;10.30;99.90
12634;DHT22;6382;48.614;8.880;2022-11-15T09:51:53;11.40;99.90
12634;DHT22;6382;48.614;8.880;2022-11-15T09:54:36;11.30;99.90
12634;DHT22;6382;48.614;8.880;2022-11-15T09:59:58;10.40;99.90
12634;DHT22;6382;48.614;8.880;2022-11-15T10:02:57;10.50;99.90
12634;DHT22;6382;48.614;8.880;2022-11-15T10:05:25;10.50;99.90
12634;DHT22;6382;48.614;8.880;2022-11-15T10:10:27;10.60;99.90
12634;DHT22;6382;48.614;8.880;2022-11-15T10:12:55;10.60;99.90
12634;DHT22;6382;48.614;8.880;2022-11-15T10:15:22;11.40;99.90
12634;DHT22;6382;48.614;8.880;2022-11-15T10:17:59;10.70;99.90
12634;DHT22;6382;48.614;8.880;2022-11-15T10:20:30;10.70;99.90
12634;DHT22;6382;48.614;8.880;2022-11-15T10:23:05;11.30;99.90
12634;DHT22;6382;48.614;8.880;2022-11-15T10:25:33;10.90;99.90
12634;DHT22;6382;48.614;8.880;2022-11-15T10:28:01;11.00;99.90
12634;DHT22;6382;48.614;8.880;2022-11-15T10:30:37;12.60;99.90
12634;DHT22;6382;48.614;8.880;2022-11-15T10:33:38;11.10;99.90
12634;DHT22;6382;48.614;8.880;2022-11-15T10:43:42;11.20;99.90
12634;DHT22;6382;48.614;8.880;2022-11-15T10:46:19;11.10;99.90
12634;DHT22;6382;48.614;8.880;2022-11-15T10:51:52;11.20;99.90
12634;DHT22;6382;48.614;8.880;2022-11-15T10:54:23;11.10;99.90
12634;DHT22;6382;48.614;8.880;2022-11-15T10:56:51;11.10;99.90
12634;DHT22;6382;48.614;8.880;2022-11-15T10:59:26;11.20;99.90
12634;DHT22;6382;48.614;8.880;2022-11-15T11:01:53;11.20;99.90
12634;DHT22;6382;48.614;8.880;2022-11-15T11:04:20;11.30;99.90
12634;DHT22;6382;48.614;8.880;2022-11-15T11:06:51;11.10;99.90
12634;DHT22;6382;48.614;8.880;2022-11-15T11:11:48;11.10;99.90
12634;DHT22;6382;48.614;8.880;2022-11-15T11:14:23;11.20;99.90
12634;DHT22;6382;48.614;8.880;2022-11-15T11:16:52;11.10;99.90
12634;DHT22;6382;48.614;8.880;2022-11-15T11:19:43;11.20;99.90
12634;DHT22;6382;48.614;8.880;2022-11-15T11:30:03;11.20;99.90
12634;DHT22;6382;48.614;8.880;2022-11-15T11:35:28;11.30;99.90
12634;DHT22;6382;48.614;8.880;2022-11-15T11:43:31;11.30;99.90
12634;DHT22;6382;48.614;8.880;2022-11-15T11:46:13;11.30;99.90
12634;DHT22;6382;48.614;8.880;2022-11-15T11:48:56;11.40;99.90
12634;DHT22;6382;48.614;8.880;2022-11-15T11:51:28;11.50;99.90
12634;DHT22;6382;48.614;8.880;2022-11-15T11:54:01;11.50;99.90
12634;DHT22;6382;48.614;8.880;2022-11-15T11:56:33;11.60;99.90
12634;DHT22;6382;48.614;8.880;2022-11-15T11:59:10;11.60;99.90
12634;DHT22;6382;48.614;8.880;2022-11-15T12:01:42;11.50;99.90
12634;DHT22;6382;48.614;8.880;2022-11-15T12:04:17;11.50;99.90
12634;DHT22;6382;48.614;8.880;2022-11-15T12:06:47;11.50;99.90
12634;DHT22;6382;48.614;8.880;2022-11-15T12:09:17;11.50;99.90
12634;DHT22;6382;48.614;8.880;2022-11-15T12:11:54;11.60;99.90
12634;DHT22;6382;48.614;8.880;2022-11-15T12:17:09;11.50;99.90
12634;DHT22;6382;48.614;8.880;2022-11-15T12:19:36;11.60;99.90
12634;DHT22;6382;48.614;8.880;2022-11-15T12:22:13;12.60;99.90
12634;DHT22;6382;48.614;8.880;2022-11-15T12:24:45;11.60;99.90
12634;DHT22;6382;48.614;8.880;2022-11-15T12:27:17;11.90;99.90
12634;DHT22;6382;48.614;8.880;2022-11-15T12:29:53;11.60;99.90
12634;DHT22;6382;48.614;8.880;2022-11-15T12:34:50;11.70;99.90
12634;DHT22;6382;48.614;8.880;2022-11-15T12:42:56;11.80;99.90
12634;DHT22;6382;48.614;8.880;2022-11-15T12:45:24;11.80;99.90
12634;DHT22;6382;48.614;8.880;2022-11-15T12:47:51;11.90;99.90
12634;DHT22;6382;48.614;8.880;2022-11-15T12:50:47;12.80;99.90
12634;DHT22;6382;48.614;8.880;2022-11-15T13:01:09;12.00;99.90
12634;DHT22;6382;48.614;8.880;2022-11-15T13:03:58;12.00;99.90
12634;DHT22;6382;48.614;8.880;2022-11-15T13:06:42;12.00;99.90
12634;DHT22;6382;48.614;8.880;2022-11-15T13:11:55;12.00;99.90
12634;DHT22;6382;48.614;8.880;2022-11-15T13:17:01;12.10;99.90
12634;DHT22;6382;48.614;8.880;2022-11-15T13:19:28;11.90;99.90
12634;DHT22;6382;48.614;8.880;2022-11-15T13:21:55;11.90;99.90
12634;DHT22;6382;48.614;8.880;2022-11-15T13:24:40;11.90;99.90
12634;DHT22;6382;48.614;8.880;2022-11-15T13:27:18;11.90;99.90
12634;DHT22;6382;48.614;8.880;2022-11-15T13:29:45;11.80;99.90
12634;DHT22;6382;48.614;8.880;2022-11-15T13:32:12;11.90;99.90
12634;DHT22;6382;48.614;8.880;2022-11-15T13:34:42;12.60;99.90
12634;DHT22;6382;48.614;8.880;2022-11-15T13:39:47;11.70;99.90
12634;DHT22;6382;48.614;8.880;2022-11-15T13:42:15;11.70;99.90
12634;DHT22;6382;48.614;8.880;2022-11-15T13:44:55;11.60;99.90
12634;DHT22;6382;48.614;8.880;2022-11-15T13:47:24;11.60;99.90
12634;DHT22;6382;48.614;8.880;2022-11-15T13:49:53;12.40;99.90
12634;DHT22;6382;48.614;8.880;2022-11-15T13:52:19;11.80;99.90
12634;DHT22;6382;48.614;8.880;2022-11-15T13:57:23;11.60;99.90
12634;DHT22;6382;48.614;8.880;2022-11-15T13:59:51;11.60;99.90
12634;DHT22;6382;48.614;8.880;2022-11-15T14:02:20;11.60;99.90
12634;DHT22;6382;48.614;8.880;2022-11-15T14:04:53;11.60;99.90
12634;DHT22;6382;48.614;8.880;2022-11-15T14:07:21;12.90;99.90
12634;DHT22;6382;48.614;8.880;2022-11-15T14:09:48;11.70;99.90
12634;DHT22;6382;48.614;8.880;2022-11-15T14:14:51;11.70;99.90
12634;DHT22;6382;48.614;8.880;2022-11-15T14:17:20;11.80;99.90
12634;DHT22;6382;48.614;8.880;2022-11-15T14:19:47;11.70;99.90
12634;DHT22;6382;48.614;8.880;2022-11-15T14:22:18;11.70;99.90
12634;DHT22;6382;48.614;8.880;2022-11-15T14:25:04;11.70;99.90
12634;DHT22;6382;48.614;8.880;2022-11-15T14:27:32;12.70;99.90
12634;DHT22;6382;48.614;8.880;2022-11-15T14:29:59;11.70;99.90
12634;DHT22;6382;48.614;8.880;2022-11-15T14:32:27;11.60;99.90
12634;DHT22;6382;48.614;8.880;2022-11-15T14:34:58;11.60;99.90
12634;DHT22;6382;48.614;8.880;2022-11-15T14:37:29;13.00;99.90
12634;DHT22;6382;48.614;8.880;2022-11-15T14:39:57;11.50;99.90
12634;DHT22;6382;48.614;8.880;2022-11-15T14:42:24;11.60;99.90
12634;DHT22;6382;48.614;8.880;2022-11-15T14:44:51;11.40;99.90
12634;DHT22;6382;48.614;8.880;2022-11-15T14:47:18;11.30;99.90
12634;DHT22;6382;48.614;8.880;2022-11-15T14:49:45;12.00;99.90
12634;DHT22;6382;48.614;8.880;2022-11-15T14:54:57;11.30;99.90
12634;DHT22;6382;48.614;8.880;2022-11-15T14:57:25;11.30;99.90
12634;DHT22;6382;48.614;8.880;2022-11-15T14:59:52;11.30;99.90
12634;DHT22;6382;48.614;8.880;2022-11-15T15:02:20;11.30;99.90
12634;DHT22;6382;48.614;8.880;2022-11-15T15:04:48;11.20;99.90
12634;DHT22;6382;48.614;8.880;2022-11-15T15:07:15;11.10;99.90
12634;DHT22;6382;48.614;8.880;2022-11-15T15:09:42;11.10;99.90
12634;DHT22;6382;48.614;8.880;2022-11-15T15:12:22;11.60;99.90
12634;DHT22;6382;48.614;8.880;2022-11-15T15:14:49;11.00;99.90
12634;DHT22;6382;48.614;8.880;2022-11-15T15:17:16;11.00;99.90
12634;DHT22;6382;48.614;8.880;2022-11-15T15:19:43;10.90;99.90
12634;DHT22;6382;48.614;8.880;2022-11-15T15:22:16;11.80;99.90
12634;DHT22;6382;48.614;8.880;2022-11-15T15:24:43;10.80;99.90
12634;DHT22;6382;48.614;8.880;2022-11-15T15:27:11;11.40;99.90
12634;DHT22;6382;48.614;8.880;2022-11-15T15:29:38;10.70;99.90
12634;DHT22;6382;48.614;8.880;2022-11-15T15:32:04;10.70;99.90
12634;DHT22;6382;48.614;8.880;2022-11-15T15:34:31;10.60;99.90
12634;DHT22;6382;48.614;8.880;2022-11-15T15:37:08;10.60;99.90
12634;DHT22;6382;48.614;8.880;2022-11-15T15:39:35;10.60;99.90
12634;DHT22;6382;48.614;8.880;2022-11-15T15:42:02;11.60;99.90
12634;DHT22;6382;48.614;8.880;2022-11-15T15:44:30;10.50;99.90
12634;DHT22;6382;48.614;8.880;2022-11-15T15:46:56;11.80;99.90
12634;DHT22;6382;48.614;8.880;2022-11-15T15:49:24;10.40;99.90
12634;DHT22;6382;48.614;8.880;2022-11-15T15:51:50;10.40;99.90
12634;DHT22;6382;48.614;8.880;2022-11-15T15:54:17;10.30;99.90
12634;DHT22;6382;48.614;8.880;2022-11-15T15:56:44;10.30;99.90
12634;DHT22;6382;48.614;8.880;2022-11-15T15:59:10;11.00;99.90
12634;DHT22;6382;48.614;8.880;2022-11-15T16:01:37;10.20;99.90
12634;DHT22;6382;48.614;8.880;2022-11-15T16:04:04;10.20;99.90
12634;DHT22;6382;48.614;8.880;2022-11-15T16:09:01;10.20;99.90
12634;DHT22;6382;48.614;8.880;2022-11-15T16:11:41;11.40;99.90
12634;DHT22;6382;48.614;8.880;2022-11-15T16:14:08;11.00;99.90
12634;DHT22;6382;48.614;8.880;2022-11-15T16:16:35;10.80;99.90
12634;DHT22;6382;48.614;8.880;2022-11-15T16:19:02;10.20;99.90
12634;DHT22;6382;48.614;8.880;2022-11-15T16:21:29;11.80;99.90
12634;DHT22;6382;48.614;8.880;2022-11-15T16:23:56;10.10;99.90
12634;DHT22;6382;48.614;8.880;2022-11-15T16:26:27;11.00;99.90
12634;DHT22;6382;48.614;8.880;2022-11-15T16:28:54;10.00;99.90
12634;DHT22;6382;48.614;8.880;2022-11-15T16:31:21;11.40;99.90
12634;DHT22;6382;48.614;8.880;2022-11-15T16:33:48;10.00;99.90
12634;DHT22;6382;48.614;8.880;2022-11-15T16:36:19;10.60;99.90
12634;DHT22;6382;48.614;8.880;2022-11-15T16:38:52;9.90;99.90
12634;DHT22;6382;48.614;8.880;2022-11-15T16:41:19;9.90;99.90
12634;DHT22;6382;48.614;8.880;2022-11-15T16:43:45;10.10;99.90
12634;DHT22;6382;48.614;8.880;2022-11-15T16:46:30;9.90;99.90
12634;DHT22;6382;48.614;8.880;2022-11-15T16:48:57;9.90;99.90
12634;DHT22;6382;48.614;8.880;2022-11-15T16:51:24;10.70;99.90
12634;DHT22;6382;48.614;8.880;2022-11-15T16:53:51;10.30;99.90
12634;DHT22;6382;48.614;8.880;2022-11-15T16:56:19;10.90;99.90
12634;DHT22;6382;48.614;8.880;2022-11-15T16:58:48;9.80;99.90
12634;DHT22;6382;48.614;8.880;2022-11-15T17:01:16;9.80;99.90
12634;DHT22;6382;48.614;8.880;2022-11-15T17:03:43;9.70;99.90
12634;DHT22;6382;48.614;8.880;2022-11-15T17:06:10;9.80;99.90
12634;DHT22;6382;48.614;8.880;2022-11-15T17:08:38;11.00;99.90
12634;DHT22;6382;48.614;8.880;2022-11-15T17:11:05;9.70;99.90
12634;DHT22;6382;48.614;8.880;2022-11-15T17:13:32;9.70;99.90
12634;DHT22;6382;48.614;8.880;2022-11-15T17:16:05;9.70;99.90
12634;DHT22;6382;48.614;8.880;2022-11-15T17:18:33;9.60;99.90
12634;DHT22;6382;48.614;8.880;2022-11-15T17:21:04;9.60;99.90
12634;DHT22;6382;48.614;8.880;2022-11-15T17:23:31;9.60;99.90
12634;DHT22;6382;48.614;8.880;2022-11-15T17:25:58;9.60;99.90
12634;DHT22;6382;48.614;8.880;2022-11-15T17:28:46;11.00;99.90
12634;DHT22;6382;48.614;8.880;2022-11-15T17:31:13;9.60;99.90
12634;DHT22;6382;48.614;8.880;2022-11-15T17:33:40;11.30;99.90
12634;DHT22;6382;48.614;8.880;2022-11-15T17:36:07;9.60;99.90
12634;DHT22;6382;48.614;8.880;2022-11-15T17:38:35;9.60;99.90
12634;DHT22;6382;48.614;8.880;2022-11-15T17:41:03;10.60;99.90
12634;DHT22;6382;48.614;8.880;2022-11-15T17:43:31;9.60;99.90
12634;DHT22;6382;48.614;8.880;2022-11-15T17:45:58;10.50;99.90
12634;DHT22;6382;48.614;8.880;2022-11-15T17:48:25;11.20;99.90
12634;DHT22;6382;48.614;8.880;2022-11-15T17:50:59;9.50;99.90
12634;DHT22;6382;48.614;8.880;2022-11-15T17:53:26;9.50;99.90